Bemidji, MN (56601)

6:20 AM CDT on September 01, 2015 (GMT -0500)
Jordan Seaplane Base | | Change Station
CLOSE
Current Station
Personal Weather Station
Location: Bemidji, MN
Elevation: 1368 ft
Nearby Weather Stations

Elev 1368 ft 47.60 °N, 94.85 °W | Updated 14 minutes ago

Fog
Fog
56.8 °F
Feels Like 56.8 °F
N
0.0
Wind Variable Wind from NNE

Today
High -- | Low -- °F
--% Chance of Precip.
Yesterday
High -- | Low -- °F
Precip. -- in
6:37 AM 8:00 PM
Waning Gibbous, 89% visible
Pressure 29.91 in
Visibility 0.5 miles
Clouds
Dew Point 56 °F
Humidity 99%
Rainfall 0.00 in
Snow Depth Not available.
UV Not available.
Pollen 9.90 out of 12
Air Quality Not available.
Flu Activity Not available.
METAR KBJI 011114Z AUTO 00000KT 1/2SM FG VV005 12/12 A2991 RMK AO2 T01170117
Pressure 29.91 in
Visibility 0.5 miles
Clouds
Dew Point 56 °F
Humidity 99%
Rainfall 0.00 in
Snow Depth Not available.
UV Not available.
Pollen 9.90 out of 12
Air Quality Not available.
Flu Activity Not available.
METAR KBJI 011114Z AUTO 00000KT 1/2SM FG VV005 12/12 A2991 RMK AO2 T01170117
Nowcast | as of 4:41 am CDT on September 1, 2015

Patchy fog will persist through the early morning hours from the southern Red River valley through west central into parts of northwestern Minnesota. Visibility may be reduced to one quarter mile or less at times. Conditions are expected improve after sunrise. Use caution if traveling early this morning.

×

10-Day Weather Forecast

×

Almanac

Astronomy

Sep. 01, 2015 Rise Set
Actual Time
Civil Twilight
Nautical Twilight
Astronomical Twilight
Moon
Length of Visible Light
Length of Day
Tomorrow will be .
, % of the Moon is Illuminated

Today's Extremes

State Highs State Lows

Community

WunderPhotos

Upload Photos

1,851,501 photos uploaded!

WunderBlogs® & News

Nearby

Air Quality

  Air Quality AQ Index Pollutant
Not available.

Snow Depth

Station Depth Elevation

Earthquake Activity

City Distance Mag. Time & Date
Minimum magnitude displayed is 2.5.

Coastal Water Temperatures

Place Temperature

Stations

Nearby Weather Stations

Station Location Temp. Windchill Dew Point Humidity Wind Precip. Elev Updated Type